sensor_id;sensor_type;location;lat;lon;timestamp;pressure;altitude;pressure_sealevel;temperature;humidity
74065;BME280;62421;51.412;5.432;2022-12-18T00:01:36;102752.34;;;-6.70;100.00
74065;BME280;62421;51.412;5.432;2022-12-18T00:04:04;102747.97;;;-6.71;100.00
74065;BME280;62421;51.412;5.432;2022-12-18T00:06:30;102754.88;;;-6.73;100.00
74065;BME280;62421;51.412;5.432;2022-12-18T00:08:57;102742.56;;;-6.75;100.00
74065;BME280;62421;51.412;5.432;2022-12-18T00:11:25;102746.81;;;-6.79;100.00
74065;BME280;62421;51.412;5.432;2022-12-18T00:13:54;102746.63;;;-6.85;100.00
74065;BME280;62421;51.412;5.432;2022-12-18T00:16:21;102747.38;;;-6.89;100.00
74065;BME280;62421;51.412;5.432;2022-12-18T00:18:48;102741.94;;;-6.95;100.00
74065;BME280;62421;51.412;5.432;2022-12-18T00:21:14;102747.88;;;-7.01;100.00
74065;BME280;62421;51.412;5.432;2022-12-18T00:23:42;102745.88;;;-7.08;100.00
74065;BME280;62421;51.412;5.432;2022-12-18T00:26:11;102727.44;;;-7.13;100.00
74065;BME280;62421;51.412;5.432;2022-12-18T00:28:37;102729.97;;;-7.16;100.00
74065;BME280;62421;51.412;5.432;2022-12-18T00:31:04;102717.78;;;-7.15;100.00
74065;BME280;62421;51.412;5.432;2022-12-18T00:33:30;102723.91;;;-7.15;100.00
74065;BME280;62421;51.412;5.432;2022-12-18T00:36:10;102714.34;;;-7.14;100.00
74065;BME280;62421;51.412;5.432;2022-12-18T00:38:36;102710.75;;;-7.18;100.00
74065;BME280;62421;51.412;5.432;2022-12-18T00:41:02;102716.75;;;-7.21;100.00
74065;BME280;62421;51.412;5.432;2022-12-18T00:43:28;102714.03;;;-7.24;100.00
74065;BME280;62421;51.412;5.432;2022-12-18T00:45:53;102717.53;;;-7.23;100.00
74065;BME280;62421;51.412;5.432;2022-12-18T00:48:19;102722.75;;;-7.23;100.00
74065;BME280;62421;51.412;5.432;2022-12-18T00:50:45;102714.91;;;-7.25;100.00
74065;BME280;62421;51.412;5.432;2022-12-18T00:53:10;102718.31;;;-7.26;100.00
74065;BME280;62421;51.412;5.432;2022-12-18T00:55:38;102706.94;;;-7.28;100.00
74065;BME280;62421;51.412;5.432;2022-12-18T00:58:04;102704.25;;;-7.31;100.00
74065;BME280;62421;51.412;5.432;2022-12-18T01:00:29;102703.31;;;-7.33;100.00
74065;BME280;62421;51.412;5.432;2022-12-18T01:02:54;102710.25;;;-7.33;100.00
74065;BME280;62421;51.412;5.432;2022-12-18T01:05:19;102710.13;;;-7.36;100.00
74065;BME280;62421;51.412;5.432;2022-12-18T01:07:45;102719.63;;;-7.38;100.00
74065;BME280;62421;51.412;5.432;2022-12-18T01:10:12;102718.69;;;-7.41;100.00
74065;BME280;62421;51.412;5.432;2022-12-18T01:12:38;102720.28;;;-7.46;100.00
74065;BME280;62421;51.412;5.432;2022-12-18T01:15:05;102721.81;;;-7.51;100.00
74065;BME280;62421;51.412;5.432;2022-12-18T01:17:30;102723.41;;;-7.56;100.00
74065;BME280;62421;51.412;5.432;2022-12-18T01:19:56;102725.94;;;-7.57;100.00
74065;BME280;62421;51.412;5.432;2022-12-18T01:22:21;102729.25;;;-7.63;100.00
74065;BME280;62421;51.412;5.432;2022-12-18T01:24:46;102727.44;;;-7.66;100.00
74065;BME280;62421;51.412;5.432;2022-12-18T01:27:12;102729.13;;;-7.66;100.00
74065;BME280;62421;51.412;5.432;2022-12-18T01:29:37;102730.78;;;-7.68;100.00
74065;BME280;62421;51.412;5.432;2022-12-18T01:32:02;102724.63;;;-7.70;100.00
74065;BME280;62421;51.412;5.432;2022-12-18T01:34:28;102728.97;;;-7.71;100.00
74065;BME280;62421;51.412;5.432;2022-12-18T01:36:53;102721.13;;;-7.71;100.00
74065;BME280;62421;51.412;5.432;2022-12-18T01:39:19;102719.38;;;-7.72;100.00
74065;BME280;62421;51.412;5.432;2022-12-18T01:41:45;102716.66;;;-7.75;100.00
74065;BME280;62421;51.412;5.432;2022-12-18T01:47:46;102712.13;;;-7.80;100.00
74065;BME280;62421;51.412;5.432;2022-12-18T01:50:38;102715.47;;;-7.83;100.00
74065;BME280;62421;51.412;5.432;2022-12-18T01:53:15;102714.50;;;-7.87;100.00
74065;BME280;62421;51.412;5.432;2022-12-18T01:56:08;102719.50;;;-7.93;100.00
74065;BME280;62421;51.412;5.432;2022-12-18T02:01:12;102714.72;;;-8.05;100.00
74065;BME280;62421;51.412;5.432;2022-12-18T02:03:37;102716.34;;;-8.08;100.00
74065;BME280;62421;51.412;5.432;2022-12-18T02:06:52;102709.31;;;-8.11;100.00
74065;BME280;62421;51.412;5.432;2022-12-18T02:09:22;102717.94;;;-8.12;100.00
74065;BME280;62421;51.412;5.432;2022-12-18T02:11:52;102718.88;;;-8.10;100.00
74065;BME280;62421;51.412;5.432;2022-12-18T02:17:19;102703.41;;;-8.05;100.00
74065;BME280;62421;51.412;5.432;2022-12-18T02:24:54;102713.91;;;-8.04;100.00
74065;BME280;62421;51.412;5.432;2022-12-18T02:27:22;102707.81;;;-8.04;100.00
74065;BME280;62421;51.412;5.432;2022-12-18T02:29:51;102709.47;;;-8.06;100.00
74065;BME280;62421;51.412;5.432;2022-12-18T02:32:21;102708.47;;;-8.10;100.00
74065;BME280;62421;51.412;5.432;2022-12-18T02:34:50;102693.59;;;-8.12;100.00
74065;BME280;62421;51.412;5.432;2022-12-18T02:37:17;102694.31;;;-8.16;100.00
74065;BME280;62421;51.412;5.432;2022-12-18T02:39:45;102689.88;;;-8.19;100.00
74065;BME280;62421;51.412;5.432;2022-12-18T02:42:12;102694.09;;;-8.23;100.00
74065;BME280;62421;51.412;5.432;2022-12-18T02:44:45;102694.88;;;-8.25;100.00
74065;BME280;62421;51.412;5.432;2022-12-18T02:47:12;102685.22;;;-8.28;100.00
74065;BME280;62421;51.412;5.432;2022-12-18T02:49:44;102681.59;;;-8.31;100.00
74065;BME280;62421;51.412;5.432;2022-12-18T02:52:39;102679.72;;;-8.35;100.00
74065;BME280;62421;51.412;5.432;2022-12-18T02:58:06;102662.31;;;-8.36;100.00
74065;BME280;62421;51.412;5.432;2022-12-18T03:00:39;102673.69;;;-8.34;100.00
74065;BME280;62421;51.412;5.432;2022-12-18T03:05:47;102674.44;;;-8.37;100.00
74065;BME280;62421;51.412;5.432;2022-12-18T03:08:16;102674.44;;;-8.37;100.00
74065;BME280;62421;51.412;5.432;2022-12-18T03:10:50;102671.03;;;-8.36;100.00
74065;BME280;62421;51.412;5.432;2022-12-18T03:13:33;102664.22;;;-8.32;100.00
74065;BME280;62421;51.412;5.432;2022-12-18T03:16:01;102650.34;;;-8.31;100.00
74065;BME280;62421;51.412;5.432;2022-12-18T03:18:36;102662.31;;;-8.36;100.00
74065;BME280;62421;51.412;5.432;2022-12-18T03:21:05;102657.84;;;-8.39;100.00
74065;BME280;62421;51.412;5.432;2022-12-18T03:23:39;102652.78;;;-8.36;100.00
74065;BME280;62421;51.412;5.432;2022-12-18T03:26:08;102654.59;;;-8.33;100.00
74065;BME280;62421;51.412;5.432;2022-12-18T03:28:42;102654.66;;;-8.32;100.00
74065;BME280;62421;51.412;5.432;2022-12-18T03:31:12;102654.66;;;-8.32;100.00
74065;BME280;62421;51.412;5.432;2022-12-18T03:33:45;102660.81;;;-8.30;100.00
74065;BME280;62421;51.412;5.432;2022-12-18T03:36:11;102663.53;;;-8.27;100.00
74065;BME280;62421;51.412;5.432;2022-12-18T03:38:36;102663.53;;;-8.27;100.00
74065;BME280;62421;51.412;5.432;2022-12-18T03:41:32;102664.41;;;-8.26;100.00
74065;BME280;62421;51.412;5.432;2022-12-18T03:44:14;102672.22;;;-8.26;100.00
74065;BME280;62421;51.412;5.432;2022-12-18T03:47:08;102667.72;;;-8.30;100.00
74065;BME280;62421;51.412;5.432;2022-12-18T03:49:39;102661.41;;;-8.37;100.00
74065;BME280;62421;51.412;5.432;2022-12-18T03:52:13;102663.00;;;-8.42;100.00
74065;BME280;62421;51.412;5.432;2022-12-18T03:54:42;102659.34;;;-8.47;100.00
74065;BME280;62421;51.412;5.432;2022-12-18T03:57:12;102654.88;;;-8.50;100.00
74065;BME280;62421;51.412;5.432;2022-12-18T03:59:40;102656.69;;;-8.49;100.00
74065;BME280;62421;51.412;5.432;2022-12-18T04:02:06;102637.66;;;-8.46;100.00
74065;BME280;62421;51.412;5.432;2022-12-18T04:04:34;102632.53;;;-8.45;100.00
74065;BME280;62421;51.412;5.432;2022-12-18T04:07:00;102615.22;;;-8.42;100.00
74065;BME280;62421;51.412;5.432;2022-12-18T04:09:27;102620.47;;;-8.41;100.00
74065;BME280;62421;51.412;5.432;2022-12-18T04:11:53;102619.63;;;-8.40;100.00
74065;BME280;62421;51.412;5.432;2022-12-18T04:14:19;102610.03;;;-8.41;100.00
74065;BME280;62421;51.412;5.432;2022-12-18T04:16:45;102602.19;;;-8.42;100.00
74065;BME280;62421;51.412;5.432;2022-12-18T04:19:10;102609.13;;;-8.43;100.00
74065;BME280;62421;51.412;5.432;2022-12-18T04:21:35;102604.66;;;-8.46;100.00
74065;BME280;62421;51.412;5.432;2022-12-18T04:24:01;102591.66;;;-8.46;100.00
74065;BME280;62421;51.412;5.432;2022-12-18T04:26:26;102601.19;;;-8.46;100.00
74065;BME280;62421;51.412;5.432;2022-12-18T04:28:51;102612.31;;;-8.50;100.00
74065;BME280;62421;51.412;5.432;2022-12-18T04:31:16;102617.53;;;-8.50;100.00
74065;BME280;62421;51.412;5.432;2022-12-18T04:33:42;102627.06;;;-8.51;100.00
74065;BME280;62421;51.412;5.432;2022-12-18T04:36:07;102619.31;;;-8.49;100.00
74065;BME280;62421;51.412;5.432;2022-12-18T04:38:33;102624.41;;;-8.52;100.00
74065;BME280;62421;51.412;5.432;2022-12-18T04:40:58;102621.69;;;-8.55;100.00
74065;BME280;62421;51.412;5.432;2022-12-18T04:43:23;102625.13;;;-8.56;100.00
74065;BME280;62421;51.412;5.432;2022-12-18T04:45:49;102621.53;;;-8.60;100.00
74065;BME280;62421;51.412;5.432;2022-12-18T04:48:14;102636.16;;;-8.63;100.00
74065;BME280;62421;51.412;5.432;2022-12-18T04:50:39;102640.34;;;-8.67;100.00
74065;BME280;62421;51.412;5.432;2022-12-18T04:53:04;102648.06;;;-8.70;100.00
74065;BME280;62421;51.412;5.432;2022-12-18T04:55:30;102651.44;;;-8.73;100.00
74065;BME280;62421;51.412;5.432;2022-12-18T04:57:55;102639.13;;;-8.77;100.00
74065;BME280;62421;51.412;5.432;2022-12-18T05:00:21;102647.75;;;-8.78;100.00
74065;BME280;62421;51.412;5.432;2022-12-18T05:02:46;102640.72;;;-8.80;100.00
74065;BME280;62421;51.412;5.432;2022-12-18T05:05:12;102651.03;;;-8.83;100.00
74065;BME280;62421;51.412;5.432;2022-12-18T05:07:37;102647.34;;;-8.89;100.00
74065;BME280;62421;51.412;5.432;2022-12-18T05:10:03;102650.72;;;-8.91;100.00
74065;BME280;62421;51.412;5.432;2022-12-18T05:12:28;102639.28;;;-8.95;100.00
74065;BME280;62421;51.412;5.432;2022-12-18T05:14:53;102647.00;;;-8.98;100.00
74065;BME280;62421;51.412;5.432;2022-12-18T05:17:19;102655.66;;;-8.99;100.00
74065;BME280;62421;51.412;5.432;2022-12-18T05:19:44;102655.59;;;-9.00;100.00
74065;BME280;62421;51.412;5.432;2022-12-18T05:22:11;102646.81;;;-9.02;100.00
74065;BME280;62421;51.412;5.432;2022-12-18T05:24:36;102650.25;;;-9.03;100.00
74065;BME280;62421;51.412;5.432;2022-12-18T05:27:02;102647.59;;;-9.05;100.00
74065;BME280;62421;51.412;5.432;2022-12-18T05:29:27;102648.38;;;-9.08;100.00
74065;BME280;62421;51.412;5.432;2022-12-18T05:31:53;102643.97;;;-9.09;100.00
74065;BME280;62421;51.412;5.432;2022-12-18T05:34:18;102637.97;;;-9.08;100.00
74065;BME280;62421;51.412;5.432;2022-12-18T05:36:43;102651.09;;;-9.04;100.00
74065;BME280;62421;51.412;5.432;2022-12-18T05:39:08;102630.25;;;-9.04;100.00
74065;BME280;62421;51.412;5.432;2022-12-18T05:41:34;102629.41;;;-9.03;100.00
74065;BME280;62421;51.412;5.432;2022-12-18T05:43:59;102617.25;;;-9.04;100.00
74065;BME280;62421;51.412;5.432;2022-12-18T05:46:25;102624.09;;;-9.07;100.00
74065;BME280;62421;51.412;5.432;2022-12-18T05:48:51;102630.97;;;-9.09;100.00
74065;BME280;62421;51.412;5.432;2022-12-18T05:51:19;102620.47;;;-9.10;100.00
74065;BME280;62421;51.412;5.432;2022-12-18T05:53:45;102626.53;;;-9.11;100.00
74065;BME280;62421;51.412;5.432;2022-12-18T05:56:17;102629.06;;;-9.13;100.00
74065;BME280;62421;51.412;5.432;2022-12-18T05:58:44;102619.59;;;-9.11;100.00
74065;BME280;62421;51.412;5.432;2022-12-18T06:01:16;102619.69;;;-9.09;100.00
74065;BME280;62421;51.412;5.432;2022-12-18T06:03:42;102610.22;;;-9.07;100.00
74065;BME280;62421;51.412;5.432;2022-12-18T06:06:19;102614.56;;;-9.06;100.00
74065;BME280;62421;51.412;5.432;2022-12-18T06:08:45;102621.44;;;-9.08;100.00
74065;BME280;62421;51.412;5.432;2022-12-18T06:11:11;102619.69;;;-9.09;100.00
74065;BME280;62421;51.412;5.432;2022-12-18T06:13:37;102623.06;;;-9.12;100.00
74065;BME280;62421;51.412;5.432;2022-12-18T06:16:06;102633.47;;;-9.12;100.00
74065;BME280;62421;51.412;5.432;2022-12-18T06:18:33;102631.75;;;-9.11;100.00
74065;BME280;62421;51.412;5.432;2022-12-18T06:20:59;102641.28;;;-9.12;100.00
74065;BME280;62421;51.412;5.432;2022-12-18T06:23:25;102644.75;;;-9.11;100.00
74065;BME280;62421;51.412;5.432;2022-12-18T06:25:51;102640.31;;;-9.14;100.00
74065;BME280;62421;51.412;5.432;2022-12-18T06:28:16;102634.97;;;-9.17;100.00
74065;BME280;62421;51.412;5.432;2022-12-18T06:30:45;102622.75;;;-9.19;100.00
74065;BME280;62421;51.412;5.432;2022-12-18T06:33:11;102620.91;;;-9.22;100.00
74065;BME280;62421;51.412;5.432;2022-12-18T06:35:36;102628.66;;;-9.23;100.00
74065;BME280;62421;51.412;5.432;2022-12-18T06:38:02;102616.34;;;-9.28;100.00
74065;BME280;62421;51.412;5.432;2022-12-18T06:40:28;102619.66;;;-9.32;100.00
74065;BME280;62421;51.412;5.432;2022-12-18T06:42:53;102630.75;;;-9.36;100.00
74065;BME280;62421;51.412;5.432;2022-12-18T06:45:18;102622.91;;;-9.37;100.00
74065;BME280;62421;51.412;5.432;2022-12-18T06:47:43;102615.09;;;-9.37;100.00
74065;BME280;62421;51.412;5.432;2022-12-18T06:50:09;102615.91;;;-9.38;100.00
74065;BME280;62421;51.412;5.432;2022-12-18T06:52:34;102614.16;;;-9.39;100.00
74065;BME280;62421;51.412;5.432;2022-12-18T06:55:00;102608.88;;;-9.41;100.00
74065;BME280;62421;51.412;5.432;2022-12-18T06:57:25;102609.66;;;-9.43;100.00
74065;BME280;62421;51.412;5.432;2022-12-18T06:59:51;102608.69;;;-9.45;100.00
74065;BME280;62421;51.412;5.432;2022-12-18T07:02:17;102610.28;;;-9.49;100.00
74065;BME280;62421;51.412;5.432;2022-12-18T07:04:42;102613.66;;;-9.52;100.00
74065;BME280;62421;51.412;5.432;2022-12-18T07:07:07;102615.41;;;-9.51;100.00
74065;BME280;62421;51.412;5.432;2022-12-18T07:09:33;102605.06;;;-9.49;100.00
74065;BME280;62421;51.412;5.432;2022-12-18T07:11:58;102592.13;;;-9.48;100.00
74065;BME280;62421;51.412;5.432;2022-12-18T07:14:23;102605.31;;;-9.43;100.00
74065;BME280;62421;51.412;5.432;2022-12-18T07:16:49;102601.06;;;-9.41;100.00
74065;BME280;62421;51.412;5.432;2022-12-18T07:19:14;102592.44;;;-9.40;100.00
74065;BME280;62421;51.412;5.432;2022-12-18T07:21:39;102582.94;;;-9.39;100.00
74065;BME280;62421;51.412;5.432;2022-12-18T07:24:05;102567.44;;;-9.36;100.00
74065;BME280;62421;51.412;5.432;2022-12-18T07:26:30;102561.44;;;-9.34;100.00
74065;BME280;62421;51.412;5.432;2022-12-18T07:28:56;102545.19;;;-9.28;100.00
74065;BME280;62421;51.412;5.432;2022-12-18T07:31:23;102549.63;;;-9.25;100.00
74065;BME280;62421;51.412;5.432;2022-12-18T07:33:49;102551.41;;;-9.24;100.00
74065;BME280;62421;51.412;5.432;2022-12-18T07:36:16;102546.25;;;-9.23;100.00
74065;BME280;62421;51.412;5.432;2022-12-18T07:38:41;102544.66;;;-9.19;100.00
74065;BME280;62421;51.412;5.432;2022-12-18T07:41:09;102551.00;;;-9.13;100.00
74065;BME280;62421;51.412;5.432;2022-12-18T07:43:36;102556.31;;;-9.10;100.00
74065;BME280;62421;51.412;5.432;2022-12-18T07:46:03;102539.97;;;-9.06;100.00
74065;BME280;62421;51.412;5.432;2022-12-18T07:48:29;102521.97;;;-8.99;100.00
74065;BME280;62421;51.412;5.432;2022-12-18T07:51:01;102519.59;;;-8.93;100.00
74065;BME280;62421;51.412;5.432;2022-12-18T07:53:27;102518.00;;;-8.90;100.00
74065;BME280;62421;51.412;5.432;2022-12-18T07:55:57;102519.03;;;-8.86;100.00
74065;BME280;62421;51.412;5.432;2022-12-18T07:58:23;102511.25;;;-8.84;100.00
74065;BME280;62421;51.412;5.432;2022-12-18T08:00:48;102514.00;;;-8.80;100.00
74065;BME280;62421;51.412;5.432;2022-12-18T08:03:13;102498.56;;;-8.75;100.00
74065;BME280;62421;51.412;5.432;2022-12-18T08:05:38;102508.44;;;-8.67;100.00
74065;BME280;62421;51.412;5.432;2022-12-18T08:08:04;102515.50;;;-8.62;100.00
74065;BME280;62421;51.412;5.432;2022-12-18T08:10:29;102523.44;;;-8.59;100.00
74065;BME280;62421;51.412;5.432;2022-12-18T08:12:55;102521.84;;;-8.56;100.00
74065;BME280;62421;51.412;5.432;2022-12-18T08:15:20;102517.66;;;-8.51;100.00
74065;BME280;62421;51.412;5.432;2022-12-18T08:17:45;102524.75;;;-8.47;100.00
74065;BME280;62421;51.412;5.432;2022-12-18T08:20:11;102522.22;;;-8.43;100.00
74065;BME280;62421;51.412;5.432;2022-12-18T08:22:38;102521.53;;;-8.38;100.00
74065;BME280;62421;51.412;5.432;2022-12-18T08:25:04;102538.22;;;-8.33;100.00
74065;BME280;62421;51.412;5.432;2022-12-18T08:27:29;102534.88;;;-8.29;100.00
74065;BME280;62421;51.412;5.432;2022-12-18T08:29:55;102521.97;;;-8.26;100.00
74065;BME280;62421;51.412;5.432;2022-12-18T08:32:20;102523.06;;;-8.19;100.00
74065;BME280;62421;51.412;5.432;2022-12-18T08:34:46;102535.38;;;-8.15;100.00
74065;BME280;62421;51.412;5.432;2022-12-18T08:37:11;102535.50;;;-8.10;100.00
74065;BME280;62421;51.412;5.432;2022-12-18T08:39:36;102531.31;;;-8.05;100.00
74065;BME280;62421;51.412;5.432;2022-12-18T08:42:02;102523.63;;;-8.02;100.00
74065;BME280;62421;51.412;5.432;2022-12-18T08:44:46;102518.44;;;-8.00;100.00
74065;BME280;62421;51.412;5.432;2022-12-18T08:47:11;102504.66;;;-7.96;100.00
74065;BME280;62421;51.412;5.432;2022-12-18T08:49:36;102502.19;;;-7.93;100.00
74065;BME280;62421;51.412;5.432;2022-12-18T08:52:02;102504.88;;;-7.90;100.00
74065;BME280;62421;51.412;5.432;2022-12-18T08:54:28;102501.59;;;-7.85;100.00
74065;BME280;62421;51.412;5.432;2022-12-18T08:56:53;102506.16;;;-7.77;100.00
74065;BME280;62421;51.412;5.432;2022-12-18T08:59:19;102511.50;;;-7.73;100.00
74065;BME280;62421;51.412;5.432;2022-12-18T09:01:45;102490.84;;;-7.67;100.00
74065;BME280;62421;51.412;5.432;2022-12-18T09:04:11;102489.34;;;-7.58;100.00
74065;BME280;62421;51.412;5.432;2022-12-18T09:06:37;102490.44;;;-7.52;100.00
74065;BME280;62421;51.412;5.432;2022-12-18T09:09:03;102497.69;;;-7.42;100.00
74065;BME280;62421;51.412;5.432;2022-12-18T09:11:30;102500.53;;;-7.34;100.00
74065;BME280;62421;51.412;5.432;2022-12-18T09:13:57;102502.53;;;-7.25;100.00
74065;BME280;62421;51.412;5.432;2022-12-18T09:16:23;102520.16;;;-7.18;100.00
74065;BME280;62421;51.412;5.432;2022-12-18T09:18:49;102514.22;;;-7.12;100.00
74065;BME280;62421;51.412;5.432;2022-12-18T09:21:19;102522.28;;;-7.05;100.00
74065;BME280;62421;51.412;5.432;2022-12-18T09:23:50;102512.91;;;-6.98;100.00
74065;BME280;62421;51.412;5.432;2022-12-18T09:26:15;102506.91;;;-6.94;100.00
74065;BME280;62421;51.412;5.432;2022-12-18T09:28:41;102499.25;;;-6.88;100.00
74065;BME280;62421;51.412;5.432;2022-12-18T09:31:08;102492.44;;;-6.83;100.00
74065;BME280;62421;51.412;5.432;2022-12-18T09:33:35;102488.22;;;-6.77;100.00
74065;BME280;62421;51.412;5.432;2022-12-18T09:36:03;102481.41;;;-6.72;100.00
74065;BME280;62421;51.412;5.432;2022-12-18T09:38:28;102479.88;;;-6.64;100.00
74065;BME280;62421;51.412;5.432;2022-12-18T09:40:59;102480.00;;;-6.60;100.00
74065;BME280;62421;51.412;5.432;2022-12-18T09:43:32;102482.78;;;-6.53;100.00
74065;BME280;62421;51.412;5.432;2022-12-18T09:46:03;102488.19;;;-6.46;100.00
74065;BME280;62421;51.412;5.432;2022-12-18T09:48:38;102473.66;;;-6.36;100.00
74065;BME280;62421;51.412;5.432;2022-12-18T09:51:25;102475.66;;;-6.24;100.00
74065;BME280;62421;51.412;5.432;2022-12-18T09:53:58;102460.13;;;-6.18;100.00
74065;BME280;62421;51.412;5.432;2022-12-18T09:56:28;102451.56;;;-6.12;100.00
74065;BME280;62421;51.412;5.432;2022-12-18T09:58:59;102458.75;;;-6.04;100.00
74065;BME280;62421;51.412;5.432;2022-12-18T10:01:26;102465.00;;;-5.97;100.00
74065;BME280;62421;51.412;5.432;2022-12-18T10:03:53;102461.63;;;-5.91;100.00
74065;BME280;62421;51.412;5.432;2022-12-18T10:06:30;102454.81;;;-5.85;100.00
74065;BME280;62421;51.412;5.432;2022-12-18T10:11:43;102454.25;;;-5.71;100.00
74065;BME280;62421;51.412;5.432;2022-12-18T10:27:18;102455.53;;;-5.10;100.00
74065;BME280;62421;51.412;5.432;2022-12-18T10:29:46;102456.56;;;-5.02;100.00
74065;BME280;62421;51.412;5.432;2022-12-18T10:32:22;102453.16;;;-4.98;100.00
74065;BME280;62421;51.412;5.432;2022-12-18T10:34:51;102445.41;;;-4.93;100.00
74065;BME280;62421;51.412;5.432;2022-12-18T10:37:19;102425.38;;;-4.89;100.00
74065;BME280;62421;51.412;5.432;2022-12-18T10:39:46;102423.72;;;-4.86;100.00
74065;BME280;62421;51.412;5.432;2022-12-18T10:42:19;102415.94;;;-4.81;100.00
74065;BME280;62421;51.412;5.432;2022-12-18T10:44:45;102409.03;;;-4.76;100.00
74065;BME280;62421;51.412;5.432;2022-12-18T10:47:15;102409.97;;;-4.72;100.00
74065;BME280;62421;51.412;5.432;2022-12-18T10:49:50;102402.19;;;-4.68;100.00
74065;BME280;62421;51.412;5.432;2022-12-18T10:52:22;102412.78;;;-4.62;100.00
74065;BME280;62421;51.412;5.432;2022-12-18T10:54:51;102408.50;;;-4.57;100.00
74065;BME280;62421;51.412;5.432;2022-12-18T10:57:38;102407.75;;;-4.49;100.00
74065;BME280;62421;51.412;5.432;2022-12-18T11:00:29;102389.53;;;-4.42;100.00
74065;BME280;62421;51.412;5.432;2022-12-18T11:02:55;102375.63;;;-4.36;100.00
74065;BME280;62421;51.412;5.432;2022-12-18T11:05:30;102379.22;;;-4.29;100.00
74065;BME280;62421;51.412;5.432;2022-12-18T11:07:56;102374.06;;;-4.25;100.00
74065;BME280;62421;51.412;5.432;2022-12-18T11:10:33;102369.75;;;-4.20;100.00
74065;BME280;62421;51.412;5.432;2022-12-18T11:13:20;102380.31;;;-4.15;100.00
74065;BME280;62421;51.412;5.432;2022-12-18T11:15:46;102386.47;;;-4.13;100.00
74065;BME280;62421;51.412;5.432;2022-12-18T11:18:20;102374.34;;;-4.06;100.00
74065;BME280;62421;51.412;5.432;2022-12-18T11:20:52;102367.44;;;-4.00;100.00
74065;BME280;62421;51.412;5.432;2022-12-18T11:23:19;102372.78;;;-3.94;100.00
74065;BME280;62421;51.412;5.432;2022-12-18T11:25:52;102362.34;;;-3.87;100.00
74065;BME280;62421;51.412;5.432;2022-12-18T11:28:43;102355.44;;;-3.81;100.00
74065;BME280;62421;51.412;5.432;2022-12-18T11:34:09;102337.19;;;-3.72;100.00
74065;BME280;62421;51.412;5.432;2022-12-18T11:36:38;102343.41;;;-3.65;100.00
74065;BME280;62421;51.412;5.432;2022-12-18T11:39:18;102341.72;;;-3.60;100.00
74065;BME280;62421;51.412;5.432;2022-12-18T11:42:27;102357.50;;;-3.55;100.00
74065;BME280;62421;51.412;5.432;2022-12-18T11:44:50;102354.94;;;-3.52;100.00
74065;BME280;62421;51.412;5.432;2022-12-18T11:47:27;102338.38;;;-3.48;100.00
74065;BME280;62421;51.412;5.432;2022-12-18T11:49:55;102341.91;;;-3.43;100.00
74065;BME280;62421;51.412;5.432;2022-12-18T11:52:36;102342.84;;;-3.39;100.00
74065;BME280;62421;51.412;5.432;2022-12-18T11:55:13;102341.16;;;-3.33;100.00
74065;BME280;62421;51.412;5.432;2022-12-18T11:57:49;102334.22;;;-3.29;100.00
74065;BME280;62421;51.412;5.432;2022-12-18T12:00:20;102327.22;;;-3.25;100.00
74065;BME280;62421;51.412;5.432;2022-12-18T12:09:05;102311.53;;;-3.18;100.00
74065;BME280;62421;51.412;5.432;2022-12-18T12:11:18;102319.44;;;-3.15;100.00
74065;BME280;62421;51.412;5.432;2022-12-18T12:16:58;102304.63;;;-3.08;100.00
74065;BME280;62421;51.412;5.432;2022-12-18T12:19:49;102305.56;;;-3.03;100.00
74065;BME280;62421;51.412;5.432;2022-12-18T12:22:44;102302.09;;;-2.99;100.00
74065;BME280;62421;51.412;5.432;2022-12-18T12:25:29;102289.00;;;-2.94;100.00
74065;BME280;62421;51.412;5.432;2022-12-18T12:28:19;102289.03;;;-2.90;100.00
74065;BME280;62421;51.412;5.432;2022-12-18T12:30:57;102287.31;;;-2.86;100.00
74065;BME280;62421;51.412;5.432;2022-12-18T12:33:33;102273.31;;;-2.83;100.00
74065;BME280;62421;51.412;5.432;2022-12-18T12:39:03;102276.00;;;-2.77;100.00
74065;BME280;62421;51.412;5.432;2022-12-18T12:41:32;102263.75;;;-2.75;100.00
74065;BME280;62421;51.412;5.432;2022-12-18T12:44:44;102260.25;;;-2.73;100.00
74065;BME280;62421;51.412;5.432;2022-12-18T12:47:22;102256.75;;;-2.70;100.00
74065;BME280;62421;51.412;5.432;2022-12-18T12:49:49;102255.00;;;-2.68;100.00
74065;BME280;62421;51.412;5.432;2022-12-18T12:52:18;102247.13;;;-2.65;100.00
74065;BME280;62421;51.412;5.432;2022-12-18T12:54:47;102250.66;;;-2.63;100.00
74065;BME280;62421;51.412;5.432;2022-12-18T13:00:00;102241.94;;;-2.57;100.00
74065;BME280;62421;51.412;5.432;2022-12-18T13:05:14;102234.06;;;-2.53;99.86
74065;BME280;62421;51.412;5.432;2022-12-18T13:13:06;102222.66;;;-2.56;99.80
74065;BME280;62421;51.412;5.432;2022-12-18T13:15:45;102224.41;;;-2.57;99.18
74065;BME280;62421;51.412;5.432;2022-12-18T13:21:42;102215.63;;;-2.57;99.56
74065;BME280;62421;51.412;5.432;2022-12-18T13:26:48;102214.75;;;-2.59;98.85
74065;BME280;62421;51.412;5.432;2022-12-18T13:29:40;102212.13;;;-2.59;99.38
74065;BME280;62421;51.412;5.432;2022-12-18T13:32:19;102214.75;;;-2.59;99.44
74065;BME280;62421;51.412;5.432;2022-12-18T13:34:45;102220.03;;;-2.58;98.56
74065;BME280;62421;51.412;5.432;2022-12-18T13:39:57;102212.97;;;-2.60;98.86
74065;BME280;62421;51.412;5.432;2022-12-18T13:42:34;102214.75;;;-2.59;99.33
74065;BME280;62421;51.412;5.432;2022-12-18T13:48:20;102200.72;;;-2.57;99.02
74065;BME280;62421;51.412;5.432;2022-12-18T13:50:59;102196.34;;;-2.56;99.37
74065;BME280;62421;51.412;5.432;2022-12-18T13:53:53;102192.88;;;-2.54;99.31
74065;BME280;62421;51.412;5.432;2022-12-18T13:56:28;102193.75;;;-2.53;98.75
74065;BME280;62421;51.412;5.432;2022-12-18T13:59:14;102183.22;;;-2.50;99.31
74065;BME280;62421;51.412;5.432;2022-12-18T14:01:45;102190.25;;;-2.49;98.69
74065;BME280;62421;51.412;5.432;2022-12-18T14:04:25;102197.28;;;-2.48;99.25
74065;BME280;62421;51.412;5.432;2022-12-18T14:07:12;102199.03;;;-2.47;99.53